Station 22101
Data from this station are not quality controlled by NDBC
Previous 25 observations
TIME (GMT) |
LAT deg |
LON deg |
 WDIR |
 WSPD kts |
 WGST kts |
 WVHT ft |
 DPD sec |
 PRES in |
 PTDY in |
 ATMP °F |
 WTMP °F |
 DEWP °F |
| 2026-04-10 1800 | 37.24 | 126.02 | WSW | 8 | - | 1.6 | 0 | - | - | 45.0 | 46.4 | - |
| 2026-04-10 1700 | 37.24 | 126.02 | W | 6 | - | 1.6 | 0 | - | - | 45.3 | 46.4 | - |
| 2026-04-10 1600 | 37.24 | 126.02 | WNW | 8 | - | 1.6 | 0 | - | - | 45.5 | 46.4 | - |
| 2026-04-10 1500 | 37.24 | 126.02 | WNW | 4 | - | 1.6 | 0 | - | - | 45.7 | 46.4 | - |
| 2026-04-10 1400 | 37.24 | 126.02 | WNW | 10 | - | 1.6 | 0 | - | - | 46.0 | 46.4 | - |
| 2026-04-10 1300 | 37.24 | 126.02 | WNW | 8 | - | 1.6 | 0 | - | - | 45.5 | 46.4 | - |
| 2026-04-10 1200 | 37.24 | 126.02 | WNW | 12 | - | 1.6 | 0 | - | - | 45.9 | 46.4 | - |
| 2026-04-10 1100 | 37.24 | 126.02 | W | 10 | - | 1.6 | 0 | - | - | 45.7 | 46.4 | - |
| 2026-04-10 1000 | 37.24 | 126.02 | WNW | 10 | - | 1.6 | 0 | - | - | 45.7 | 46.4 | - |
| 2026-04-10 0900 | 37.24 | 126.02 | WNW | 14 | - | 1.6 | 0 | - | - | 45.7 | 46.4 | - |
| 2026-04-10 0800 | 37.24 | 126.02 | W | 14 | - | 1.6 | 0 | - | - | 46.0 | 46.4 | - |
| 2026-04-10 0700 | 37.24 | 126.02 | W | 14 | - | 1.6 | 0 | - | - | 46.2 | 46.4 | - |
| 2026-04-10 0600 | 37.24 | 126.02 | W | 14 | - | 1.6 | 0 | - | - | 46.2 | 46.4 | - |
| 2026-04-10 0500 | 37.24 | 126.02 | W | 14 | - | 1.6 | 0 | - | - | 45.9 | 46.6 | - |
| 2026-04-10 0400 | 37.24 | 126.02 | W | 16 | - | 1.6 | 0 | - | - | 45.9 | 46.4 | - |
| 2026-04-10 0300 | 37.24 | 126.02 | W | 14 | - | 1.6 | 0 | - | - | 45.7 | 46.4 | - |
| 2026-04-10 0200 | 37.24 | 126.02 | W | 14 | - | 1.6 | 0 | - | - | 45.5 | 46.2 | - |
| 2026-04-10 0100 | 37.24 | 126.02 | WNW | 14 | - | 1.6 | 0 | - | - | 45.3 | 46.2 | - |
| 2026-04-10 0000 | 37.24 | 126.02 | WNW | 16 | - | 1.6 | 0 | - | - | 45.3 | 46.2 | - |
| 2026-04-09 2300 | 37.24 | 126.02 | W | 16 | - | 1.6 | 0 | - | - | 45.1 | 46.2 | - |
| 2026-04-09 2200 | 37.24 | 126.02 | W | 14 | - | 1.6 | 0 | - | - | 45.7 | 46.2 | - |
| 2026-04-09 2100 | 37.24 | 126.02 | W | 12 | - | 1.6 | 0 | - | - | 45.3 | 46.2 | - |
| 2026-04-09 2000 | 37.24 | 126.02 | W | 12 | - | 1.6 | 0 | - | - | 45.3 | 46.2 | - |
| 2026-04-09 1900 | 37.24 | 126.02 | WSW | 10 | - | 1.6 | 0 | - | - | 45.3 | 46.2 | - |